Terminal Aerodrome Forecast
Issued by NWS Twin Cities, MN

Home | Current Version | Previous Version | Text Only | Print | Product List | Glossary Off
Versions: 1 2 3 4 5 6 7 8 9 10 11 12 13 14 15 16

000
FTUS43 KMPX 231722
TAFEAU
TAF
KEAU 231722Z 2318/2418 03006KT P6SM VCSH SCT020 BKN040 OVC080
     FM240600 02008KT P6SM VCSH OVC025
     FM240800 02007KT P6SM BKN020=

USA.gov is the U.S. government's official web portal to all federal, state and local government web resources and services.